Time;durP1;ratioP1;P1;durP2;ratioP2;P2;SDS_P1;SDS_P2;PMS_P1;PMS_P2;Temp;Humidity;BMP_temperature;BMP_pressure;BME280_temperature;BME280_humidity;BME280_pressure;Samples;Min_cycle;Max_cycle;Signal;HPM_P1;HPM_P2
2022/03/12 00:01:36;;;;;;;221.15;83.72;;;;;;;-6.44;49.04;102118.65;1701343;83;25726;-69
2022/03/12 00:04:06;;;;;;;219.65;82.22;;;;;;;-6.45;49.19;102121.43;1708705;83;25660;-69
2022/03/12 00:06:34;;;;;;;229.95;82.25;;;;;;;-6.49;48.79;102122.72;1701347;83;25925;-70
2022/03/12 00:09:00;;;;;;;213.80;81.55;;;;;;;-6.49;48.80;102124.86;1704655;83;25714;-70
2022/03/12 00:11:34;;;;;;;215.47;80.10;;;;;;;-6.50;49.13;102125.86;1706399;83;27390;-69
2022/03/12 00:14:03;;;;;;;220.40;80.00;;;;;;;-6.53;49.34;102121.37;1699838;83;25795;-69
2022/03/12 00:16:31;;;;;;;206.55;75.80;;;;;;;-6.57;49.19;102115.09;1707617;83;25660;-69
2022/03/12 00:19:03;;;;;;;197.02;75.15;;;;;;;-6.61;49.24;102112.91;1703495;83;26044;-70
2022/03/12 00:21:33;;;;;;;181.02;71.72;;;;;;;-6.67;48.86;102114.34;1711270;83;25654;-70
2022/03/12 00:24:00;;;;;;;198.70;73.62;;;;;;;-6.71;49.13;102110.34;1702644;83;27970;-70
2022/03/12 00:26:29;;;;;;;195.95;71.70;;;;;;;-6.71;48.78;102108.20;1700558;83;25700;-69
2022/03/12 00:28:56;;;;;;;189.55;73.65;;;;;;;-6.73;49.21;102107.03;1705181;83;26183;-70
2022/03/12 00:31:23;;;;;;;193.25;72.75;;;;;;;-6.76;49.53;102102.92;1706062;83;25925;-70
2022/03/12 00:33:50;;;;;;;175.57;68.47;;;;;;;-6.77;49.62;102103.88;1700016;83;25709;-70
2022/03/12 00:36:17;;;;;;;181.85;68.30;;;;;;;-6.80;49.68;102103.36;1686930;84;27885;-70
2022/03/12 00:38:45;;;;;;;177.12;67.92;;;;;;;-6.86;50.10;102096.90;1703358;84;25664;-70
2022/03/12 00:41:13;;;;;;;187.95;69.07;;;;;;;-6.88;50.00;102100.64;1709125;83;25888;-70
2022/03/12 00:43:40;;;;;;;173.50;64.25;;;;;;;-6.89;50.25;102104.27;1708143;83;25934;-69
2022/03/12 00:46:07;;;;;;;178.87;62.75;;;;;;;-6.92;50.39;102108.00;1701789;84;25706;-69
2022/03/12 00:48:34;;;;;;;194.67;70.12;;;;;;;-6.99;50.26;102102.51;1702974;84;27442;-69
2022/03/12 00:51:02;;;;;;;191.85;67.60;;;;;;;-7.00;50.54;102106.13;1704244;83;26265;-69
2022/03/12 00:53:28;;;;;;;195.62;68.28;;;;;;;-7.02;50.71;102114.64;1705236;83;25642;-69
2022/03/12 00:55:55;;;;;;;184.35;67.20;;;;;;;-7.02;50.61;102116.45;1710151;83;25937;-69
2022/03/12 00:58:21;;;;;;;184.37;67.82;;;;;;;-7.04;50.65;102117.91;1701343;84;25748;-68
2022/03/12 01:00:47;;;;;;;182.82;64.20;;;;;;;-7.08;51.15;102115.25;1703654;84;27305;-69
2022/03/12 01:03:14;;;;;;;189.03;67.78;;;;;;;-7.11;51.33;102114.72;1703587;83;25692;-68
2022/03/12 01:05:52;;;;;;;204.25;72.67;;;;;;;-7.14;51.05;102104.81;1705597;83;25655;-69
2022/03/12 01:08:20;;;;;;;190.73;69.30;;;;;;;-7.12;50.71;102112.55;1648752;86;25953;-69
2022/03/12 01:10:47;;;;;;;210.07;76.57;;;;;;;-7.12;50.83;102109.92;1685394;84;25692;-68
2022/03/12 01:13:14;;;;;;;207.55;73.57;;;;;;;-7.10;51.09;102113.23;1661390;85;27428;-69
2022/03/12 01:15:41;;;;;;;199.82;74.20;;;;;;;-7.09;51.32;102103.55;1656997;86;27176;-69
2022/03/12 01:18:15;;;;;;;214.42;77.40;;;;;;;-7.10;51.88;102100.08;1651391;86;25624;-69
2022/03/12 01:21:03;;;;;;;200.95;73.07;;;;;;;-7.12;51.81;102106.47;1686603;84;26475;-69
2022/03/12 01:23:29;;;;;;;204.10;72.75;;;;;;;-7.17;51.93;102102.50;1721066;83;25672;-69
2022/03/12 01:25:55;;;;;;;201.73;73.72;;;;;;;-7.21;52.38;102104.24;1716979;83;27540;-69
2022/03/12 01:28:21;;;;;;;191.98;74.60;;;;;;;-7.27;52.37;102103.50;1719596;83;25692;-69
2022/03/12 01:30:49;;;;;;;218.63;76.90;;;;;;;-7.30;52.78;102094.59;1701299;84;25729;-69
2022/03/12 01:33:17;;;;;;;212.48;77.15;;;;;;;-7.32;52.38;102087.69;1706311;84;25986;-68
2022/03/12 01:35:44;;;;;;;216.05;75.92;;;;;;;-7.31;51.83;102084.56;1709948;83;25522;-68
2022/03/12 01:38:10;;;;;;;208.43;74.85;;;;;;;-7.30;51.86;102087.55;1716294;83;27325;-68
2022/03/12 01:40:37;;;;;;;202.28;75.20;;;;;;;-7.30;52.37;102084.92;1715327;83;25689;-69
2022/03/12 01:43:04;;;;;;;214.00;77.00;;;;;;;-7.29;51.34;102083.11;1715808;83;25670;-69
2022/03/12 01:45:32;;;;;;;193.70;73.20;;;;;;;-7.29;52.08;102079.16;1716140;83;26107;-69
2022/03/12 01:48:03;;;;;;;203.20;72.65;;;;;;;-7.31;52.19;102079.31;1721210;83;25753;-68
2022/03/12 01:50:34;;;;;;;192.60;72.82;;;;;;;-7.28;52.60;102078.20;1713347;83;27327;-69
2022/03/12 01:53:07;;;;;;;199.53;70.57;;;;;;;-7.30;52.97;102084.07;1712733;83;25693;-69
2022/03/12 01:55:40;;;;;;;201.77;74.47;;;;;;;-7.32;52.64;102081.12;1712470;83;25412;-69
2022/03/12 01:58:04;;;;;;;;;;;;;;;-7.32;52.59;102075.86;1715509;83;25914;-69
2022/03/12 02:00:51;;;;;;;189.95;67.78;;;;;;;-7.32;52.10;102075.02;1712652;83;25699;-69
2022/03/12 02:03:29;;;;;;;211.65;72.40;;;;;;;-7.33;52.76;102077.31;1712737;83;27887;-68
2022/03/12 02:05:51;;;;;;;180.05;69.87;;;;;;;-7.36;52.91;102082.37;1712621;83;25624;-68
2022/03/12 02:08:17;;;;;;;203.58;72.80;;;;;;;-7.40;53.00;102086.27;1736306;82;25617;-69
2022/03/12 02:10:48;;;;;;;197.28;73.20;;;;;;;-7.43;53.21;102081.80;1712744;83;26029;-69
2022/03/12 02:13:16;;;;;;;217.60;76.15;;;;;;;-7.47;53.37;102078.64;1713301;83;25696;-69
2022/03/12 02:15:44;;;;;;;216.73;80.57;;;;;;;-7.54;53.51;102072.31;1736501;82;27379;-69
2022/03/12 02:18:13;;;;;;;237.75;81.72;;;;;;;-7.56;53.70;102075.55;1730579;81;25589;-69
2022/03/12 02:20:41;;;;;;;;;;;;;;;-7.59;53.51;102076.69;1737461;82;25379;-69
2022/03/12 02:23:09;;;;;;;189.65;68.05;;;;;;;-7.60;52.86;102078.96;1725303;82;26089;-69
2022/03/12 02:25:36;;;;;;;217.75;76.25;;;;;;;-7.63;53.33;102075.80;1720756;83;25547;-69
2022/03/12 02:28:15;;;;;;;191.07;72.85;;;;;;;-7.65;53.84;102077.25;1718115;83;27376;-69
2022/03/12 02:30:48;;;;;;;192.18;70.40;;;;;;;-7.71;54.14;102077.85;1724519;83;25731;-69
2022/03/12 02:33:13;;;;;;;191.45;71.00;;;;;;;-7.78;54.29;102074.97;1723125;83;25550;-69
2022/03/12 02:35:42;;;;;;;187.80;73.00;;;;;;;-7.82;54.47;102075.39;1720394;83;34693;-69
2022/03/12 02:38:08;;;;;;;190.82;68.95;;;;;;;-7.87;54.64;102068.42;1726675;83;25608;-69
2022/03/12 02:40:35;;;;;;;185.78;68.33;;;;;;;-7.90;54.57;102069.53;1720833;83;27887;-69
2022/03/12 02:43:03;;;;;;;195.12;67.78;;;;;;;-7.92;54.14;102060.97;1723056;83;25829;-69
2022/03/12 02:45:29;;;;;;;173.50;64.47;;;;;;;-7.92;53.86;102059.66;1724992;83;25538;-69
2022/03/12 02:47:57;;;;;;;187.27;65.17;;;;;;;-7.92;53.47;102057.84;1719389;83;25904;-69
2022/03/12 02:50:25;;;;;;;180.52;67.75;;;;;;;-7.92;53.44;102060.97;1726139;83;25655;-69
2022/03/12 02:52:52;;;;;;;181.55;65.45;;;;;;;-7.92;53.77;102063.59;1721989;83;27948;-69
2022/03/12 02:55:22;;;;;;;168.55;62.15;;;;;;;-7.93;54.13;102056.21;1721833;83;25676;-69
2022/03/12 02:57:51;;;;;;;169.02;59.80;;;;;;;-7.96;54.21;102056.48;1726454;83;25612;-69
2022/03/12 03:00:19;;;;;;;174.97;63.20;;;;;;;-7.98;54.71;102058.44;1705965;83;25902;-69
2022/03/12 03:02:53;;;;;;;166.80;58.80;;;;;;;-8.02;54.81;102058.36;1724365;83;25680;-69
2022/03/12 03:05:35;;;;;;;175.72;58.10;;;;;;;-8.06;54.88;102057.00;1723420;83;27038;-69
2022/03/12 03:08:03;;;;;;;161.00;57.40;;;;;;;-8.10;54.54;102051.70;1715429;83;25390;-69
2022/03/12 03:10:41;;;;;;;154.30;56.88;;;;;;;-8.16;54.73;102043.89;1703628;84;25440;-71
2022/03/12 03:13:21;;;;;;;159.63;57.48;;;;;;;-8.14;54.38;102047.69;1717220;83;25929;-69
2022/03/12 03:15:59;;;;;;;159.55;58.35;;;;;;;-8.17;54.71;102047.52;1716812;83;25654;-70
2022/03/12 03:18:39;;;;;;;160.28;60.92;;;;;;;-8.18;55.25;102054.21;1695537;83;27297;-69
2022/03/12 03:21:12;;;;;;;154.30;61.00;;;;;;;-8.23;54.88;102056.44;1717092;83;25603;-69
2022/03/12 03:23:39;;;;;;;164.72;61.77;;;;;;;-8.26;54.80;102054.45;1714962;83;25557;-70
2022/03/12 03:26:05;;;;;;;161.43;61.42;;;;;;;-8.25;54.75;102055.27;1715326;83;26616;-70
2022/03/12 03:28:32;;;;;;;170.12;63.58;;;;;;;-8.28;55.10;102052.91;1714575;83;25622;-70
2022/03/12 03:30:59;;;;;;;172.62;65.42;;;;;;;-8.28;55.21;102054.23;1714800;83;27289;-70
2022/03/12 03:33:25;;;;;;;178.68;64.40;;;;;;;-8.29;55.86;102049.47;1714996;83;25603;-70
2022/03/12 03:35:52;;;;;;;191.32;68.40;;;;;;;-8.35;55.89;102049.20;1714475;83;25382;-70
2022/03/12 03:38:19;;;;;;;188.50;69.47;;;;;;;-8.40;56.04;102040.92;1715580;82;26450;-70
2022/03/12 03:40:47;;;;;;;190.73;68.12;;;;;;;-8.46;56.18;102040.55;1715052;82;25398;-70
2022/03/12 03:43:20;;;;;;;195.47;70.15;;;;;;;-8.50;56.47;102034.41;1714813;83;27294;-69
2022/03/12 03:45:54;;;;;;;194.00;71.20;;;;;;;-8.51;56.61;102045.39;1714332;82;25705;-69
2022/03/12 03:48:23;;;;;;;189.43;69.00;;;;;;;-8.52;56.60;102042.91;1690623;83;25649;-70
2022/03/12 03:50:51;;;;;;;189.20;69.25;;;;;;;-8.50;56.64;102044.41;1701253;83;25959;-70
2022/03/12 03:53:24;;;;;;;188.70;69.37;;;;;;;-8.49;56.72;102043.95;1701244;84;25469;-69
2022/03/12 03:55:54;;;;;;;215.07;73.87;;;;;;;-8.50;56.81;102044.90;1700603;84;29527;-69
2022/03/12 03:58:20;;;;;;;223.20;81.00;;;;;;;-8.54;56.64;102036.48;1668712;84;25863;-69
2022/03/12 04:00:59;;;;;;;219.77;78.28;;;;;;;-8.53;56.49;102038.61;1701136;84;25638;-69
2022/03/12 04:03:38;;;;;;;240.28;76.77;;;;;;;-8.54;56.94;102042.22;1701279;84;26465;-70
2022/03/12 04:06:05;;;;;;;230.13;81.23;;;;;;;-8.52;56.67;102041.59;1682024;84;25641;-70
2022/03/12 04:08:34;;;;;;;256.02;83.67;;;;;;;-8.53;56.96;102043.40;1712993;83;27939;-69
2022/03/12 04:11:04;;;;;;;244.57;79.45;;;;;;;-8.53;57.00;102045.17;1713853;83;25613;-69
2022/03/12 04:13:32;;;;;;;230.77;78.05;;;;;;;-8.54;57.24;102046.98;1701046;83;25628;-69
2022/03/12 04:15:59;;;;;;;217.80;73.70;;;;;;;-8.55;57.09;102050.56;1701814;84;25926;-68
2022/03/12 04:18:29;;;;;;;202.97;74.90;;;;;;;-8.53;57.80;102054.36;1712995;83;25622;-69
2022/03/12 04:20:57;;;;;;;201.18;70.62;;;;;;;-8.51;57.98;102051.11;1701436;84;27992;-69
2022/03/12 04:23:25;;;;;;;210.45;77.62;;;;;;;-8.50;57.72;102046.21;1703646;83;25734;-70
2022/03/12 04:25:56;;;;;;;163.47;55.45;;;;;;;-8.51;57.53;102044.08;1696577;84;25519;-69
2022/03/12 04:28:26;;;;;;;211.62;74.10;;;;;;;-8.50;57.99;102042.27;1713791;83;26424;-69
2022/03/12 04:30:53;;;;;;;218.42;75.30;;;;;;;-8.52;58.12;102039.79;1713200;83;25537;-69
2022/03/12 04:33:20;;;;;;;219.77;73.42;;;;;;;-8.54;58.20;102040.91;1713201;83;27295;-69
2022/03/12 04:35:48;;;;;;;200.85;71.75;;;;;;;-8.58;58.25;102031.18;1713698;83;25647;-69
2022/03/12 04:38:15;;;;;;;204.35;73.78;;;;;;;-8.61;58.57;102035.85;1696330;84;25630;-70
2022/03/12 04:40:45;;;;;;;193.00;72.58;;;;;;;-8.60;58.15;102038.34;1713521;83;26018;-69
2022/03/12 04:43:12;;;;;;;211.95;75.12;;;;;;;-8.60;58.06;102040.14;1713449;83;25539;-69
2022/03/12 04:45:45;;;;;;;200.53;70.05;;;;;;;-8.60;57.70;102040.14;1696485;84;27271;-69
2022/03/12 04:48:21;;;;;;;187.90;69.07;;;;;;;-8.59;57.87;102044.44;1710702;83;25441;-69
2022/03/12 04:50:50;;;;;;;176.35;63.68;;;;;;;-8.61;57.82;102031.92;1710055;83;25606;-69
2022/03/12 04:53:16;;;;;;;171.37;62.05;;;;;;;-8.61;57.91;102033.23;1698159;84;26471;-69
2022/03/12 04:55:44;;;;;;;164.13;60.70;;;;;;;-8.62;57.43;102031.09;1727889;82;25443;-69
2022/03/12 04:58:13;;;;;;;178.10;63.98;;;;;;;-8.65;57.63;102024.35;1727042;83;27880;-69
2022/03/12 05:00:41;;;;;;;167.15;61.63;;;;;;;-8.67;57.45;102016.26;1727640;83;25444;-69
2022/03/12 05:03:12;;;;;;;125.78;47.23;;;;;;;-8.67;58.08;102019.70;1727589;83;25636;-69
2022/03/12 05:05:42;;;;;;;175.10;65.25;;;;;;;-8.67;58.39;102024.95;1726367;82;25909;-69
2022/03/12 05:08:13;;;;;;;180.35;65.83;;;;;;;-8.68;58.57;102019.87;1727963;83;25535;-69
2022/03/12 05:10:42;;;;;;;172.80;62.93;;;;;;;-8.69;58.64;102018.20;1727114;83;27366;-70
2022/03/12 05:13:12;;;;;;;178.35;63.20;;;;;;;-8.72;58.92;102011.42;1727232;83;25974;-70
2022/03/12 05:15:39;;;;;;;171.90;61.77;;;;;;;-8.72;59.09;102015.36;1727773;82;25578;-70
2022/03/12 05:18:12;;;;;;;123.45;45.08;;;;;;;-8.72;59.49;102015.85;1726967;83;26078;-70
2022/03/12 05:20:43;;;;;;;167.43;60.38;;;;;;;-8.72;59.58;102012.73;1727707;83;25373;-70
2022/03/12 05:23:11;;;;;;;164.77;58.65;;;;;;;-8.72;59.30;102014.05;1727421;82;27273;-70
2022/03/12 05:25:41;;;;;;;181.15;63.85;;;;;;;-8.65;59.40;102020.88;1727021;82;25687;-70
2022/03/12 05:28:11;;;;;;;176.53;64.90;;;;;;;-8.61;59.57;102027.52;1728065;83;25609;-70
2022/03/12 05:30:36;;;;;;;;;;;;;;;-8.59;59.79;102026.89;1729705;83;26023;-70
2022/03/12 05:33:04;;;;;;;163.53;59.30;;;;;;;-8.55;59.71;102034.81;1727409;83;29694;-70
2022/03/12 05:35:32;;;;;;;155.97;61.02;;;;;;;-8.52;59.54;102027.16;1727624;83;27310;-70
2022/03/12 05:37:59;;;;;;;168.78;63.92;;;;;;;-8.49;59.59;102029.51;1726726;83;25712;-70
2022/03/12 05:40:28;;;;;;;193.78;71.57;;;;;;;-8.45;59.21;102035.62;1727801;83;25623;-70
2022/03/12 05:42:55;;;;;;;202.40;72.15;;;;;;;-8.41;59.31;102036.17;1727284;82;25915;-70
2022/03/12 05:45:24;;;;;;;197.75;72.32;;;;;;;-8.38;59.46;102031.10;1727294;83;25439;-70
2022/03/12 05:47:51;;;;;;;182.80;69.45;;;;;;;-8.33;59.77;102028.88;1727892;82;27930;-70
2022/03/12 05:50:19;;;;;;;170.87;63.73;;;;;;;-8.29;59.75;102018.43;1685253;85;25397;-70
2022/03/12 05:52:48;;;;;;;162.97;60.50;;;;;;;-8.21;60.08;102020.36;1679310;84;25644;-69
2022/03/12 05:55:19;;;;;;;164.57;61.35;;;;;;;-8.15;59.90;102025.05;1712373;83;25939;-69
2022/03/12 05:57:45;;;;;;;162.90;61.80;;;;;;;-8.09;59.91;102030.56;1713737;83;25665;-70
2022/03/12 06:00:15;;;;;;;184.35;65.85;;;;;;;-8.04;59.91;102031.42;1712491;83;27295;-70
2022/03/12 06:02:52;;;;;;;173.50;63.00;;;;;;;-7.96;59.96;102028.09;1712934;83;25694;-69
2022/03/12 06:05:27;;;;;;;158.52;60.50;;;;;;;-7.91;60.04;102025.36;1696720;84;25557;-69
2022/03/12 06:07:54;;;;;;;138.97;55.08;;;;;;;-7.82;60.12;102028.92;1727003;82;26250;-69
2022/03/12 06:10:28;;;;;;;126.80;48.03;;;;;;;-7.71;60.17;102023.48;1706657;83;25555;-70
2022/03/12 06:12:58;;;;;;;135.35;51.77;;;;;;;-7.60;60.25;102020.32;1727617;82;27284;-69
2022/03/12 06:15:27;;;;;;;140.12;56.23;;;;;;;-7.48;60.50;102015.69;1735757;81;25580;-69
2022/03/12 06:17:54;;;;;;;143.65;53.83;;;;;;;-7.34;60.83;102012.08;1730525;82;25602;-69
2022/03/12 06:20:23;;;;;;;138.22;52.95;;;;;;;-7.15;60.74;102012.43;1727127;82;25895;-69
2022/03/12 06:22:53;;;;;;;147.05;58.17;;;;;;;-6.96;61.07;102008.81;1727700;82;26290;-69
2022/03/12 06:25:23;;;;;;;146.82;56.30;;;;;;;-6.73;61.30;102014.10;1727720;83;28014;-69
2022/03/12 06:27:54;;;;;;;143.05;54.73;;;;;;;-6.49;61.41;102018.22;1727202;83;25667;-69
2022/03/12 06:30:26;;;;;;;143.43;58.20;;;;;;;-6.26;61.27;102021.69;1704754;83;25696;-70
2022/03/12 06:32:55;;;;;;;133.78;57.70;;;;;;;-5.99;61.32;102018.52;1726722;82;25911;-70
2022/03/12 06:35:25;;;;;;;132.52;49.83;;;;;;;-5.71;60.96;102023.89;1728164;83;25570;-69
2022/03/12 06:37:51;;;;;;;127.30;49.20;;;;;;;-5.46;60.39;102014.77;1727196;82;33787;-70
2022/03/12 06:40:18;;;;;;;123.72;51.37;;;;;;;-5.21;60.17;102021.41;1704095;83;25472;-70
2022/03/12 06:42:48;;;;;;;152.55;60.60;;;;;;;-4.96;60.42;102021.77;1727470;83;25623;-70
2022/03/12 06:45:15;;;;;;;;;;;;;;;-4.67;60.32;102016.50;1729911;83;26010;-69
2022/03/12 06:47:44;;;;;;;132.22;52.03;;;;;;;-4.34;60.14;102031.03;1707394;83;25896;-69
2022/03/12 06:50:17;;;;;;;134.93;57.15;;;;;;;-4.01;59.89;102037.56;1726860;82;27315;-70
2022/03/12 06:52:48;;;;;;;141.97;57.33;;;;;;;-3.68;59.71;102040.09;1727022;82;25537;-70
2022/03/12 06:55:20;;;;;;;125.20;51.25;;;;;;;-3.36;59.33;102035.66;1727486;83;25490;-71
2022/03/12 06:57:47;;;;;;;129.25;53.73;;;;;;;-3.09;58.18;102043.61;1727119;83;25884;-70
2022/03/12 07:00:17;;;;;;;127.12;53.42;;;;;;;-2.84;58.20;102037.65;1728110;83;25689;-70
2022/03/12 07:02:44;;;;;;;114.15;49.93;;;;;;;-2.51;57.87;102040.84;1707010;83;27313;-69
2022/03/12 07:05:11;;;;;;;107.25;47.03;;;;;;;-2.24;56.22;102041.27;1727530;82;27154;-69
2022/03/12 07:07:38;;;;;;;119.53;49.18;;;;;;;-2.12;54.86;102033.19;1727209;83;25677;-70
2022/03/12 07:10:09;;;;;;;108.50;46.68;;;;;;;-1.88;55.11;102030.77;1727977;83;25959;-70
2022/03/12 07:12:37;;;;;;;106.85;46.68;;;;;;;-1.53;54.91;102036.84;1727312;83;25644;-70
2022/03/12 07:15:05;;;;;;;101.87;47.50;;;;;;;-1.14;54.44;102042.29;1727416;82;27900;-71
2022/03/12 07:17:32;;;;;;;97.20;43.23;;;;;;;-0.77;54.19;102034.59;1727661;83;25692;-70
2022/03/12 07:19:59;;;;;;;98.67;44.35;;;;;;;-0.24;54.79;102037.34;1726992;83;25442;-70
2022/03/12 07:22:25;;;;;;;94.05;41.77;;;;;;;0.34;53.40;102046.38;1727983;83;26485;-70
2022/03/12 07:24:52;;;;;;;87.90;40.78;;;;;;;0.84;50.81;102046.17;1727140;82;25425;-71
2022/03/12 07:27:19;;;;;;;98.17;42.08;;;;;;;1.01;49.60;102043.44;1727504;82;27349;-70
2022/03/12 07:29:45;;;;;;;91.65;40.00;;;;;;;1.24;49.55;102045.75;1727970;82;25677;-72
2022/03/12 07:32:12;;;;;;;87.65;41.55;;;;;;;1.87;50.41;102044.48;1727276;82;25706;-72
2022/03/12 07:34:46;;;;;;;84.05;38.98;;;;;;;2.55;49.21;102052.61;1728335;83;25626;-70
2022/03/12 07:37:13;;;;;;;89.28;39.08;;;;;;;3.14;48.31;102050.13;1725159;83;25703;-72
2022/03/12 07:39:40;;;;;;;109.48;49.40;;;;;;;3.55;46.80;102046.64;1728589;83;27908;-71
2022/03/12 07:42:07;;;;;;;89.45;41.58;;;;;;;3.85;45.45;102045.45;1728182;83;25651;-72
2022/03/12 07:44:34;;;;;;;79.53;38.63;;;;;;;4.17;44.80;102053.38;1727317;83;25384;-71
2022/03/12 07:47:00;;;;;;;75.75;36.58;;;;;;;4.58;44.37;102047.01;1728654;83;25932;-71
2022/03/12 07:49:28;;;;;;;73.60;36.00;;;;;;;5.13;43.03;102043.39;1728091;83;25479;-71
2022/03/12 07:51:55;;;;;;;71.20;33.75;;;;;;;5.56;42.02;102051.68;1727986;82;27315;-71
2022/03/12 07:54:21;;;;;;;74.72;36.38;;;;;;;6.13;40.01;102045.73;1727327;83;25608;-71
2022/03/12 07:56:47;;;;;;;65.83;31.87;;;;;;;6.97;39.87;102041.75;1728115;83;25254;-71
2022/03/12 07:59:13;;;;;;;58.80;27.90;;;;;;;7.68;37.98;102050.19;1727924;83;26492;-70
2022/03/12 08:01:40;;;;;;;55.43;27.77;;;;;;;8.33;37.14;102038.41;1706374;83;25709;-71
2022/03/12 08:04:07;;;;;;;56.90;28.17;;;;;;;8.71;35.08;102040.20;1728330;83;27297;-70
2022/03/12 08:06:34;;;;;;;48.63;25.72;;;;;;;8.83;34.31;102029.27;1728395;83;25391;-71
2022/03/12 08:09:07;;;;;;;44.67;24.27;;;;;;;9.27;34.62;102035.88;1727447;82;25395;-76
2022/03/12 08:11:35;;;;;;;45.55;22.25;;;;;;;9.64;33.68;102033.73;1680294;85;25991;-72
2022/03/12 08:14:09;;;;;;;44.85;21.73;;;;;;;9.90;32.34;102034.70;1680548;85;25431;-73
2022/03/12 08:16:37;;;;;;;37.10;21.37;;;;;;;9.93;31.82;102037.43;1680482;85;27360;-71
2022/03/12 08:19:05;;;;;;;;;;;;;;;9.63;31.30;102034.80;1682970;85;25407;-71
2022/03/12 08:21:32;;;;;;;38.98;20.15;;;;;;;9.77;30.07;102034.34;1655196;86;25282;-71
2022/03/12 08:24:05;;;;;;;32.57;19.33;;;;;;;9.88;31.57;102033.34;1652120;86;25787;-71
2022/03/12 08:26:34;;;;;;;29.77;17.05;;;;;;;10.39;31.32;102027.41;1661545;85;26138;-71
2022/03/12 08:29:00;;;;;;;32.90;15.75;;;;;;;10.61;30.40;102040.18;1654963;86;27345;-72
2022/03/12 08:31:27;;;;;;;30.17;15.20;;;;;;;10.65;29.65;102041.27;1654815;86;25656;-71
2022/03/12 08:33:54;;;;;;;29.63;15.68;;;;;;;10.79;28.88;102044.27;1680593;85;25486;-71
2022/03/12 08:36:20;;;;;;;23.38;13.65;;;;;;;11.06;29.13;102048.66;1654485;86;25931;-71
2022/03/12 08:38:47;;;;;;;21.65;13.43;;;;;;;11.50;29.16;102037.84;1655512;86;25417;-71
2022/03/12 08:41:16;;;;;;;23.32;13.48;;;;;;;11.88;28.46;102049.15;1680828;85;27314;-71
2022/03/12 08:43:44;;;;;;;24.23;13.08;;;;;;;12.30;28.39;102041.19;1658876;85;25491;-71
2022/03/12 08:46:11;;;;;;;22.27;12.37;;;;;;;12.90;27.88;102037.05;1656725;86;25644;-71
2022/03/12 08:48:38;;;;;;;20.23;11.25;;;;;;;13.35;27.49;102042.45;1670605;84;25938;-72
2022/03/12 08:51:04;;;;;;;21.07;12.10;;;;;;;13.68;26.06;102040.80;1699318;84;25487;-71
2022/03/12 08:53:31;;;;;;;18.42;11.18;;;;;;;13.81;25.44;102042.84;1700056;84;27504;-71
2022/03/12 08:56:01;;;;;;;16.23;9.80;;;;;;;13.84;25.16;102037.35;1699441;84;25701;-72
2022/03/12 08:58:29;;;;;;;22.73;12.28;;;;;;;13.87;23.71;102035.42;1728345;83;25290;-72
2022/03/12 09:01:02;;;;;;;18.60;11.30;;;;;;;13.51;23.82;102031.70;1709925;82;70891;-72
2022/03/12 09:03:30;;;;;;;18.98;11.18;;;;;;;13.57;24.08;102033.82;1713677;82;25652;-72
2022/03/12 09:05:57;;;;;;;19.32;10.00;;;;;;;13.88;24.18;102034.34;1712543;83;27868;-72
2022/03/12 09:08:23;;;;;;;18.65;10.58;;;;;;;14.23;24.24;102020.59;1721913;81;26408;-72
2022/03/12 09:10:49;;;;;;;15.23;9.73;;;;;;;14.35;23.16;102018.25;1713728;83;25636;-72
2022/03/12 09:13:18;;;;;;;17.70;10.63;;;;;;;14.26;22.95;102016.73;1713860;83;26005;-72
2022/03/12 09:15:44;;;;;;;23.15;11.65;;;;;;;13.76;22.62;102027.94;1697500;84;25656;-72
2022/03/12 09:18:11;;;;;;;19.12;11.15;;;;;;;12.90;22.17;102026.19;1697617;84;27330;-71
2022/03/12 09:20:43;;;;;;;16.75;10.30;;;;;;;12.36;22.80;102018.91;1697586;84;25638;-71
2022/03/12 09:23:05;;;;;;;27.40;14.40;;;;;;;12.22;23.21;102014.62;1713365;83;25436;-71
2022/03/12 09:25:32;;;;;;;15.30;8.25;;;;;;;12.05;23.10;102019.84;1713664;83;25866;-71
2022/03/12 09:27:59;;;;;;;14.53;7.55;;;;;;;12.42;23.73;102025.94;1713575;83;25830;-71
2022/03/12 09:30:26;;;;;;;14.93;8.70;;;;;;;13.32;23.80;102024.81;1713612;83;27325;-72
2022/03/12 09:32:53;;;;;;;13.90;8.83;;;;;;;14.07;23.46;102022.70;1713514;83;25711;-72
2022/03/12 09:35:20;;;;;;;17.75;9.00;;;;;;;14.64;22.94;102005.93;1713455;83;25693;-72
2022/03/12 09:37:48;;;;;;;19.82;9.85;;;;;;;14.43;20.83;102018.97;1701838;84;25969;-71
2022/03/12 09:40:15;;;;;;;15.78;8.85;;;;;;;14.22;21.56;102005.36;1701820;84;25546;-72
2022/03/12 09:42:43;;;;;;;17.02;9.38;;;;;;;14.61;21.71;101998.88;1701783;84;28083;-71
2022/03/12 09:45:10;;;;;;;17.85;10.28;;;;;;;14.72;21.75;101994.34;1701795;84;25552;-72
2022/03/12 09:47:36;;;;;;;16.48;9.25;;;;;;;14.89;21.45;101980.75;1679804;84;25379;-72
2022/03/12 09:50:04;;;;;;;16.85;9.03;;;;;;;14.75;20.54;101979.34;1679722;84;25999;-72
2022/03/12 09:52:31;;;;;;;14.40;9.18;;;;;;;14.50;21.33;101975.84;1713921;83;25476;-72
2022/03/12 09:54:57;;;;;;;9.15;6.87;;;;;;;14.86;21.27;101983.50;1713943;83;27332;-73
2022/03/12 09:57:27;;;;;;;10.50;5.83;;;;;;;15.44;21.29;101977.36;1713738;83;25849;-73
2022/03/12 09:59:52;;;;;;;9.20;6.25;;;;;;;16.18;19.87;101975.13;1713805;83;25606;-71
2022/03/12 10:02:20;;;;;;;18.07;8.58;;;;;;;16.83;20.25;101969.80;1712866;81;31554;-72
2022/03/12 10:04:47;;;;;;;7.92;5.50;;;;;;;17.86;20.05;101963.02;1689300;83;25722;-69
2022/03/12 10:07:13;;;;;;;13.53;6.15;;;;;;;18.33;18.96;101958.39;1713510;83;27412;-70
2022/03/12 10:09:41;;;;;;;10.38;5.75;;;;;;;17.94;18.93;101955.99;1713553;83;25774;-71
2022/03/12 10:12:09;;;;;;;11.88;6.25;;;;;;;16.99;18.38;101951.13;1701444;82;25840;-73
2022/03/12 10:14:35;;;;;;;8.53;5.47;;;;;;;16.15;18.56;101945.14;1699176;83;25910;-73
2022/03/12 10:17:03;;;;;;;9.88;5.45;;;;;;;15.39;18.32;101946.09;1688729;85;25547;-73
2022/03/12 10:19:30;;;;;;;9.48;5.83;;;;;;;14.50;18.93;101942.37;1695757;84;28218;-75
2022/03/12 10:21:59;;;;;;;13.35;7.05;;;;;;;14.49;20.00;101938.02;1678540;84;25681;-66
2022/03/12 10:24:25;;;;;;;8.85;6.47;;;;;;;14.87;20.32;101940.75;1692518;83;25594;-66
2022/03/12 10:26:51;;;;;;;8.53;5.45;;;;;;;15.35;20.27;101935.55;1713621;83;26350;-66
2022/03/12 10:29:19;;;;;;;7.87;5.08;;;;;;;15.24;19.58;101940.39;1713881;83;25291;-73
2022/03/12 10:31:47;;;;;;;9.88;5.95;;;;;;;15.41;19.46;101937.05;1714436;83;27431;-73
2022/03/12 10:34:24;;;;;;;7.97;5.20;;;;;;;15.09;18.88;101938.17;1714456;83;25644;-72
2022/03/12 10:36:54;;;;;;;8.75;4.90;;;;;;;15.05;19.25;101930.36;1720800;83;25726;-73
2022/03/12 10:39:36;;;;;;;9.15;5.53;;;;;;;15.42;19.34;101927.21;1721064;83;26560;-73
2022/03/12 10:42:07;;;;;;;9.38;5.55;;;;;;;15.64;19.21;101924.34;1713538;83;26236;-73
2022/03/12 10:44:40;;;;;;;10.05;5.28;;;;;;;15.52;18.79;101919.40;1713626;83;27354;-73
2022/03/12 10:47:24;;;;;;;14.63;5.62;;;;;;;15.41;19.15;101918.80;1714176;83;25769;-72
2022/03/12 10:49:58;;;;;;;8.43;6.05;;;;;;;15.77;19.26;101913.22;1713343;83;25729;-73
2022/03/12 10:52:30;;;;;;;12.00;6.70;;;;;;;15.84;18.54;101914.98;1713638;83;25902;-71
2022/03/12 10:54:58;;;;;;;14.28;6.78;;;;;;;15.83;19.05;101919.64;1713671;83;25775;-71
2022/03/12 10:57:27;;;;;;;12.40;6.90;;;;;;;15.85;18.75;101914.67;1713581;83;27975;-68
2022/03/12 10:59:55;;;;;;;14.13;7.65;;;;;;;16.15;18.92;101921.14;1713771;83;25588;-69
2022/03/12 11:02:22;;;;;;;13.18;7.80;;;;;;;16.41;18.83;101915.35;1711861;82;31160;-70
2022/03/12 11:04:48;;;;;;;11.15;7.15;;;;;;;16.41;18.37;101909.06;1713512;83;25984;-70
2022/03/12 11:07:28;;;;;;;12.23;7.60;;;;;;;16.22;18.32;101903.77;1713815;83;25669;-70
2022/03/12 11:09:56;;;;;;;13.13;8.60;;;;;;;16.41;18.77;101909.89;1713948;83;27386;-70
2022/03/12 11:12:35;;;;;;;22.50;12.90;;;;;;;16.58;18.41;101913.85;1713412;83;25701;-71
2022/03/12 11:15:15;;;;;;;13.55;8.80;;;;;;;16.75;18.74;101906.33;1714012;83;25629;-72
2022/03/12 11:17:49;;;;;;;16.02;8.75;;;;;;;16.92;18.30;101907.03;1713585;83;25995;-71